createdAt,value
2019-02-12T00:00:22.539Z,28.6
2019-02-12T00:01:11.716Z,28.8
2019-02-12T00:02:02.129Z,28.9
2019-02-12T00:02:52.422Z,29.1
2019-02-12T00:03:42.482Z,29.3
2019-02-12T00:04:32.839Z,29.4
2019-02-12T00:05:23.144Z,29.6
2019-02-12T00:06:11.843Z,29.6
2019-02-12T00:07:02.502Z,29.4
2019-02-12T00:07:52.244Z,29.3
2019-02-12T00:08:43.726Z,29.2
2019-02-12T00:09:33.524Z,29.1
2019-02-12T00:10:23.581Z,28.9
2019-02-12T00:11:12.728Z,28.8
2019-02-12T00:12:02.276Z,28.6
2019-02-12T00:12:51.982Z,28.5
2019-02-12T00:13:43.438Z,28.4
2019-02-12T00:14:33.253Z,28.3
2019-02-12T00:15:23.333Z,27.9
2019-02-12T00:16:12.808Z,26.9
2019-02-12T00:17:02.863Z,26.4
2019-02-12T00:17:53.254Z,26.2
2019-02-12T00:18:43.054Z,26.3
2019-02-12T00:19:33.393Z,26.4
2019-02-12T00:20:23.361Z,26.6
2019-02-12T00:21:17.090Z,26.8
2019-02-12T00:22:03.180Z,27.1
2019-02-12T00:22:53.875Z,27.3
2019-02-12T00:23:44.398Z,27.6
2019-02-12T00:25:24.315Z,28
2019-02-12T00:26:14.890Z,28.1
2019-02-12T00:27:04.408Z,28.1
2019-02-12T00:27:55.007Z,27.9
2019-02-12T00:28:44.815Z,27.3
2019-02-12T00:29:34.595Z,26.7
2019-02-12T00:30:24.407Z,25.8
2019-02-12T00:31:14.705Z,24.8
2019-02-12T00:32:04.727Z,24.3
2019-02-12T00:32:54.242Z,24.4
2019-02-12T00:33:43.207Z,25
2019-02-12T00:34:34.887Z,25.6
2019-02-12T00:35:24.742Z,26.1
2019-02-12T00:36:14.554Z,26.4
2019-02-12T00:37:04.546Z,26.7
2019-02-12T00:37:54.897Z,26.9
2019-02-12T00:38:44.347Z,27.3
2019-02-12T00:39:34.971Z,27.6
2019-02-12T00:40:24.791Z,27.9
2019-02-12T00:41:15.412Z,28.2
2019-02-12T00:42:05.427Z,28.4
2019-02-12T00:42:55.214Z,28.6
2019-02-12T00:43:45.259Z,28.9
2019-02-12T00:44:35.294Z,29.1
2019-02-12T00:45:25.634Z,29.3
2019-02-12T00:46:15.212Z,29.4
2019-02-12T00:47:05.597Z,29.6
2019-02-12T00:47:55.826Z,29.6
2019-02-12T00:48:45.347Z,29.4
2019-02-12T00:49:36.249Z,29.3
2019-02-12T00:50:25.769Z,29.2
2019-02-12T00:51:25.096Z,29.1
2019-02-12T00:52:06.603Z,28.9
2019-02-12T00:52:55.369Z,28.8
2019-02-12T00:53:46.541Z,28.6
2019-02-12T00:54:36.396Z,28.5
2019-02-12T00:55:26.126Z,28.4
2019-02-12T00:56:15.038Z,28.3
2019-02-12T00:57:06.178Z,27.8
2019-02-12T00:57:55.438Z,26.8
2019-02-12T00:58:46.326Z,26.4
2019-02-12T00:59:35.276Z,26.1
2019-02-12T01:00:26.232Z,26.3
2019-02-12T01:01:16.853Z,26.4
2019-02-12T01:02:06.388Z,26.6
2019-02-12T01:02:57.501Z,26.8
2019-02-12T01:03:47.200Z,27.1
2019-02-12T01:04:36.798Z,27.3
2019-02-12T01:05:26.545Z,27.6
2019-02-12T01:06:17.157Z,27.9
2019-02-12T01:07:06.077Z,28.1
2019-02-12T01:07:57.637Z,28.4
2019-02-12T01:08:46.820Z,28.6
2019-02-12T01:09:35.960Z,28.8
2019-02-12T01:10:27.215Z,29
2019-02-12T01:11:17.002Z,29.2
2019-02-12T01:12:07.537Z,29.3
2019-02-12T01:12:57.340Z,29.5
2019-02-12T01:13:46.865Z,29.6
2019-02-12T01:14:37.426Z,29.6
2019-02-12T01:15:26.657Z,29.4
2019-02-12T01:16:17.267Z,29.3
2019-02-12T01:17:07.970Z,29.2
2019-02-12T01:17:57.385Z,29.1
2019-02-12T01:18:48.048Z,28.9
2019-02-12T01:19:37.766Z,28.8
2019-02-12T01:20:27.537Z,28.6
2019-02-12T01:21:25.846Z,28.5
2019-02-12T01:22:07.942Z,28.4
2019-02-12T01:22:58.271Z,28.1
2019-02-12T01:23:47.539Z,27.1
2019-02-12T01:24:38.459Z,26.6
2019-02-12T01:25:28.252Z,26.3
2019-02-12T01:26:17.962Z,26.2
2019-02-12T01:27:08.645Z,26.3
2019-02-12T01:27:58.976Z,26.4
2019-02-12T01:28:48.446Z,26.6
2019-02-12T01:29:38.204Z,26.9
2019-02-12T01:30:28.281Z,27.1
2019-02-12T01:31:18.394Z,27.4
2019-02-12T01:32:08.718Z,27.7
2019-02-12T01:32:59.099Z,27.9
2019-02-12T01:33:48.784Z,28.2
2019-02-12T01:34:38.026Z,28.4
2019-02-12T01:35:28.646Z,28.6
2019-02-12T01:36:18.748Z,28.9
2019-02-12T01:37:08.767Z,29.1
2019-02-12T01:37:59.687Z,29.3
2019-02-12T01:38:49.421Z,29.4
2019-02-12T01:39:39.184Z,29.6
2019-02-12T01:40:29.234Z,29.6
2019-02-12T01:41:19.578Z,29.5
2019-02-12T01:42:08.254Z,29.4
2019-02-12T01:42:59.188Z,29.3
2019-02-12T01:43:48.383Z,29.1
2019-02-12T01:44:40.406Z,29
2019-02-12T01:45:29.175Z,28.9
2019-02-12T01:46:20.245Z,28.7
2019-02-12T01:47:09.768Z,28.6
2019-02-12T01:48:00.111Z,28.4
2019-02-12T01:48:49.264Z,28.3
2019-02-12T01:49:39.402Z,28.2
2019-02-12T01:50:28.876Z,27.3
2019-02-12T01:51:20.048Z,26.8
2019-02-12T01:52:09.502Z,26.4
2019-02-12T01:52:59.290Z,26.1
2019-02-12T01:53:49.650Z,26.3
2019-02-12T01:54:39.660Z,26.4
2019-02-12T01:55:30.630Z,26.6
2019-02-12T01:56:20.714Z,26.8
2019-02-12T01:57:10.557Z,27.1
2019-02-12T01:58:01.117Z,27.4
2019-02-12T01:58:50.009Z,27.6
2019-02-12T01:59:40.590Z,27.9
2019-02-12T02:00:30.097Z,28.2
2019-02-12T02:01:20.977Z,28.4
2019-02-12T02:02:10.580Z,28.6
2019-02-12T02:03:00.639Z,28.9
2019-02-12T02:03:50.657Z,29.1
2019-02-12T02:04:40.939Z,29.3
2019-02-12T02:05:31.544Z,29.4
2019-02-12T02:06:20.479Z,29.6
2019-02-12T02:07:11.433Z,29.6
2019-02-12T02:08:01.250Z,29.4
2019-02-12T02:08:50.545Z,29.4
2019-02-12T02:09:41.014Z,29.2
2019-02-12T02:10:30.587Z,29.1
2019-02-12T02:11:21.397Z,28.9
2019-02-12T02:12:12.049Z,28.8
2019-02-12T02:13:00.231Z,28.7
2019-02-12T02:13:51.386Z,28.6
2019-02-12T02:14:41.709Z,28.4
2019-02-12T02:15:31.994Z,28.3
2019-02-12T02:16:21.768Z,27.5
2019-02-12T02:17:11.546Z,26.8
2019-02-12T02:18:01.890Z,26.4
2019-02-12T02:18:52.255Z,26.1
2019-02-12T02:19:41.736Z,26.2
2019-02-12T02:20:31.772Z,26.4
2019-02-12T02:21:22.660Z,26.5
2019-02-12T02:22:12.718Z,26.8
2019-02-12T02:23:02.243Z,27
2019-02-12T02:23:52.858Z,27.3
2019-02-12T02:24:42.315Z,27.6
2019-02-12T02:26:21.903Z,28.1
2019-02-12T02:27:11.981Z,28.3
2019-02-12T02:28:02.315Z,28.4
2019-02-12T02:28:52.502Z,28.3
2019-02-12T02:29:41.860Z,28.1
2019-02-12T02:30:33.016Z,27.4
2019-02-12T02:31:23.158Z,26.7
2019-02-12T02:32:12.965Z,25.8
2019-02-12T02:33:02.486Z,24.9
2019-02-12T02:33:52.514Z,24.6
2019-02-12T02:34:43.116Z,24.9
2019-02-12T02:35:33.440Z,25.6
2019-02-12T02:36:22.934Z,26.1
2019-02-12T02:37:13.533Z,26.5
2019-02-12T02:38:03.816Z,26.8
2019-02-12T02:38:53.442Z,27.1
2019-02-12T02:39:43.190Z,27.4
2019-02-12T02:40:34.057Z,27.7
2019-02-12T02:41:23.837Z,28
2019-02-12T02:42:13.301Z,28.3
2019-02-12T02:43:03.406Z,28.5
2019-02-12T02:43:53.450Z,28.8
2019-02-12T02:44:44.613Z,28.9
2019-02-12T02:45:34.574Z,29.2
2019-02-12T02:46:24.157Z,29.4
2019-02-12T02:47:14.526Z,29.6
2019-02-12T02:48:04.347Z,29.6
2019-02-12T02:48:53.261Z,29.5
2019-02-12T02:49:44.174Z,29.4
2019-02-12T02:50:34.541Z,29.3
2019-02-12T02:51:24.539Z,29.1
2019-02-12T02:52:14.041Z,29
2019-02-12T02:53:03.583Z,28.9
2019-02-12T02:53:54.847Z,28.8
2019-02-12T02:54:44.739Z,28.6
2019-02-12T02:55:34.970Z,28.4
2019-02-12T02:56:25.195Z,28.3
2019-02-12T02:57:15.277Z,27.2
2019-02-12T02:58:03.414Z,26.7
2019-02-12T02:58:53.995Z,26.4
2019-02-12T02:59:45.139Z,26.1
2019-02-12T03:00:34.054Z,26.3
2019-02-12T03:01:24.874Z,26.5
2019-02-12T03:02:15.585Z,26.6
2019-02-12T03:03:05.123Z,26.8
2019-02-12T03:03:54.644Z,27.1
2019-02-12T03:04:44.896Z,27.3
2019-02-12T03:08:16.688Z,28.4
2019-02-12T03:09:07.434Z,28.7
2019-02-12T03:09:57.813Z,28.9
2019-02-12T03:10:47.907Z,29.1
2019-02-12T03:11:37.917Z,29.3
2019-02-12T03:12:27.975Z,29.4
2019-02-12T03:13:18.320Z,29.6
2019-02-12T03:14:06.651Z,29.6
2019-02-12T03:14:57.996Z,29.4
2019-02-12T03:15:47.502Z,29.3
2019-02-12T03:16:37.638Z,29.2
2019-02-12T03:17:28.109Z,29
2019-02-12T03:18:17.866Z,28.9
2019-02-12T03:19:07.984Z,28.8
2019-02-12T03:19:57.369Z,28.6
2019-02-12T03:20:47.264Z,28.5
2019-02-12T03:21:38.580Z,28.4
2019-02-12T03:22:27.504Z,28.3
2019-02-12T03:23:18.467Z,27.1
2019-02-12T03:24:08.551Z,26.6
2019-02-12T03:24:58.539Z,26.3
2019-02-12T03:25:48.546Z,26.1
2019-02-12T03:26:38.761Z,26.3
2019-02-12T03:27:27.934Z,26.4
2019-02-12T03:28:19.116Z,26.6
2019-02-12T03:29:08.306Z,26.8
2019-02-12T03:29:58.737Z,27.1
2019-02-12T03:30:48.706Z,27.4
2019-02-12T03:31:39.350Z,27.6
2019-02-12T03:32:29.618Z,27.9
2019-02-12T03:33:18.619Z,28.1
2019-02-12T03:34:10.097Z,28.4
2019-02-12T03:34:59.264Z,28.6
2019-02-12T03:35:48.831Z,28.8
2019-02-12T03:36:38.258Z,29.1
2019-02-12T03:37:29.388Z,29.2
2019-02-12T03:38:19.000Z,29.4
2019-02-12T03:39:09.256Z,29.6
2019-02-12T03:39:58.483Z,29.6
2019-02-12T03:40:48.825Z,29.5
2019-02-12T03:41:39.704Z,29.3
2019-02-12T03:42:29.284Z,29.2
2019-02-12T03:43:19.802Z,29.1
2019-02-12T03:44:10.248Z,28.9
2019-02-12T03:44:59.670Z,28.8
2019-02-12T03:45:49.810Z,28.7
2019-02-12T03:46:39.528Z,28.5
2019-02-12T03:47:29.851Z,28.4
2019-02-12T03:48:22.950Z,28.3
2019-02-12T03:49:09.475Z,27.3
2019-02-12T03:50:00.395Z,26.8
2019-02-12T03:50:50.087Z,26.4
2019-02-12T03:51:39.691Z,26.2
2019-02-12T03:52:29.712Z,26.2
2019-02-12T03:53:20.890Z,26.4
2019-02-12T03:54:10.046Z,26.6
2019-02-12T03:55:00.739Z,26.8
2019-02-12T03:55:50.499Z,27
2019-02-12T03:56:40.217Z,27.3
2019-02-12T03:57:30.530Z,27.6
2019-02-12T03:59:09.847Z,28.1
2019-02-12T03:59:59.342Z,28.3
2019-02-12T04:00:50.256Z,28.6
2019-02-12T04:01:40.844Z,28.8
2019-02-12T04:02:30.940Z,29
2019-02-12T04:03:20.684Z,29.2
2019-02-12T04:04:11.020Z,29.3
2019-02-12T04:05:02.028Z,29.5
2019-02-12T04:05:51.291Z,29.6
2019-02-12T04:06:41.447Z,29.5
2019-02-12T04:07:31.609Z,29.4
2019-02-12T04:08:21.689Z,29.3
2019-02-12T04:09:09.996Z,29.2
2019-02-12T04:10:01.687Z,29
2019-02-12T04:10:51.523Z,28.9
2019-02-12T04:11:41.844Z,28.8
2019-02-12T04:12:30.514Z,28.6
2019-02-12T04:13:28.889Z,28.4
2019-02-12T04:14:11.922Z,28.3
2019-02-12T04:15:01.859Z,28.2
2019-02-12T04:15:50.799Z,27.5
2019-02-12T04:16:41.675Z,26.9
2019-02-12T04:17:32.023Z,26.4
2019-02-12T04:18:21.791Z,26.2
2019-02-12T04:19:11.482Z,26.2
2019-02-12T04:20:02.273Z,26.4
2019-02-12T04:20:53.018Z,26.5
2019-02-12T04:21:42.000Z,26.8
2019-02-12T04:22:32.628Z,27
2019-02-12T04:23:22.675Z,27.3
2019-02-12T04:24:12.720Z,27.5
2019-02-12T04:25:03.173Z,27.8
2019-02-12T04:25:52.671Z,28.1
2019-02-12T04:26:42.632Z,28.3
2019-02-12T04:27:32.133Z,28.5
2019-02-12T04:28:21.880Z,28.8
2019-02-12T04:29:12.505Z,28.9
2019-02-12T04:30:03.839Z,29.1
2019-02-12T04:30:52.297Z,29
2019-02-12T04:31:43.245Z,28.9
2019-02-12T04:32:33.097Z,28.6
2019-02-12T04:33:23.654Z,27.9
2019-02-12T04:34:13.221Z,27.1
2019-02-12T04:35:03.026Z,26.1
2019-02-12T04:35:52.729Z,25.2
2019-02-12T04:36:42.454Z,24.8
2019-02-12T04:37:32.052Z,24.9
2019-02-12T04:38:23.193Z,25.6
2019-02-12T04:39:12.984Z,26.2
2019-02-12T04:40:03.191Z,26.6
2019-02-12T04:40:53.591Z,26.9
2019-02-12T04:41:43.108Z,27.1
2019-02-12T04:42:33.946Z,27.4
2019-02-12T04:43:24.041Z,27.8
2019-02-12T04:44:13.499Z,28
2019-02-12T04:45:04.209Z,28.3
2019-02-12T04:45:53.686Z,28.6
2019-02-12T04:46:44.337Z,28.8
2019-02-12T04:47:34.411Z,29
2019-02-12T04:48:23.831Z,29.3
2019-02-12T04:49:14.154Z,29.4
2019-02-12T04:50:04.879Z,29.6
2019-02-12T04:50:54.027Z,29.6
2019-02-12T04:51:44.923Z,29.4
2019-02-12T04:52:40.463Z,29.3
2019-02-12T04:53:24.459Z,29.2
2019-02-12T04:54:14.609Z,29.1
2019-02-12T04:55:06.703Z,28.9
2019-02-12T04:55:54.386Z,28.8
2019-02-12T04:56:43.387Z,28.7
2019-02-12T04:57:34.536Z,28.5
2019-02-12T04:58:24.153Z,28.4
2019-02-12T04:59:15.163Z,28.1
2019-02-12T05:00:05.670Z,27.1
2019-02-12T05:00:55.039Z,26.6
2019-02-12T05:01:44.588Z,26.3
2019-02-12T05:02:35.404Z,26.1
2019-02-12T05:03:25.224Z,26.3
2019-02-12T05:04:14.193Z,26.5
2019-02-12T05:05:05.415Z,26.6
2019-02-12T05:05:55.432Z,26.8
2019-02-12T05:06:45.358Z,27.1
2019-02-12T05:07:35.745Z,27.3
2019-02-12T05:08:25.817Z,27.6
2019-02-12T05:09:15.614Z,27.9
2019-02-12T05:10:05.452Z,28.1
2019-02-12T05:10:55.408Z,28.4
2019-02-12T05:11:46.677Z,28.6
2019-02-12T05:12:35.078Z,28.8
2019-02-12T05:13:25.087Z,29
2019-02-12T05:14:15.200Z,29.2
2019-02-12T05:15:06.202Z,29.4
2019-02-12T05:15:56.372Z,29.6
2019-02-12T05:16:45.772Z,29.6
2019-02-12T05:17:35.840Z,29.5
2019-02-12T05:18:27.022Z,29.4
2019-02-12T05:19:15.714Z,29.3
2019-02-12T05:20:06.523Z,29.1
2019-02-12T05:20:57.067Z,29
2019-02-12T05:21:45.942Z,28.8
2019-02-12T05:22:48.293Z,28.7
2019-02-12T05:23:26.574Z,28.6
2019-02-12T05:24:16.369Z,28.4
2019-02-12T05:25:07.021Z,28.3
2019-02-12T05:25:56.470Z,28.2
2019-02-12T05:26:47.411Z,27.3
2019-02-12T05:27:37.494Z,26.7
2019-02-12T05:28:26.626Z,26.3
2019-02-12T05:29:19.326Z,26.1
2019-02-12T05:30:07.415Z,26.2
2019-02-12T05:30:56.708Z,26.5
2019-02-12T05:31:46.894Z,26.6
2019-02-12T05:32:36.923Z,26.8
2019-02-12T05:33:27.212Z,27.1
2019-02-12T05:34:17.861Z,27.3
2019-02-12T05:35:07.822Z,27.6
2019-02-12T05:36:47.230Z,28.1
2019-02-12T05:37:37.558Z,28.3
2019-02-12T05:38:27.711Z,28.5
2019-02-12T05:39:17.390Z,28.8
2019-02-12T05:40:08.153Z,28.9
2019-02-12T05:40:58.318Z,29.1
2019-02-12T05:41:47.824Z,29.3
2019-02-12T05:42:38.290Z,29.5
2019-02-12T05:43:28.580Z,29.6
2019-02-12T05:44:17.224Z,29.6
2019-02-12T05:45:08.850Z,29.5
2019-02-12T05:45:57.650Z,29.3
2019-02-12T05:46:48.302Z,29.3
2019-02-12T05:47:38.255Z,29.1
2019-02-12T05:48:27.775Z,28.9
2019-02-12T05:49:18.931Z,28.8
2019-02-12T05:50:08.967Z,28.6
2019-02-12T05:50:58.742Z,28.5
2019-02-12T05:51:48.580Z,28.4
2019-02-12T05:52:39.516Z,28.3
2019-02-12T05:53:28.982Z,27.6
2019-02-12T05:54:19.100Z,26.9
2019-02-12T05:55:08.889Z,26.4
2019-02-12T05:55:58.379Z,26.2
2019-02-12T05:56:48.957Z,26.1
2019-02-12T05:57:39.220Z,26.4
2019-02-12T05:58:28.989Z,26.6
2019-02-12T05:59:18.896Z,26.8
2019-02-12T06:00:09.148Z,27
2019-02-12T06:00:59.961Z,27.2
2019-02-12T06:01:48.234Z,27.4
2019-02-12T06:02:39.331Z,27.7
2019-02-12T06:03:28.892Z,27.9
2019-02-12T06:06:20.012Z,28.7
2019-02-12T06:07:06.766Z,28.9
2019-02-12T06:07:57.242Z,29.1
2019-02-12T06:08:46.975Z,29.3
2019-02-12T06:09:36.410Z,29.4
2019-02-12T06:10:26.284Z,29.6
2019-02-12T06:11:16.506Z,29.6
2019-02-12T06:12:06.772Z,29.4
2019-02-12T06:12:57.102Z,29.3
2019-02-12T06:13:46.456Z,29.2
2019-02-12T06:14:37.686Z,29.1
2019-02-12T06:15:27.026Z,28.9
2019-02-12T06:16:16.857Z,28.8
2019-02-12T06:17:07.238Z,28.6
2019-02-12T06:17:57.853Z,28.4
2019-02-12T06:18:47.423Z,28.3
2019-02-12T06:19:37.633Z,28.2
2019-02-12T06:20:27.728Z,27.7
2019-02-12T06:21:18.535Z,26.9
2019-02-12T06:22:07.893Z,26.4
2019-02-12T06:23:08.938Z,26.2
2019-02-12T06:23:47.886Z,26.3
2019-02-12T06:24:38.197Z,26.4
2019-02-12T06:25:29.071Z,26.6
2019-02-12T06:26:17.645Z,26.8
2019-02-12T06:27:08.401Z,27
2019-02-12T06:27:59.295Z,27.3
2019-02-12T06:28:48.818Z,27.5
2019-02-12T06:29:38.917Z,27.8
2019-02-12T06:30:28.663Z,28
2019-02-12T06:31:19.255Z,28.3
2019-02-12T06:32:08.719Z,28.4
2019-02-12T06:33:07.962Z,28.5
2019-02-12T06:33:48.991Z,28.4
2019-02-12T06:34:39.192Z,28.3
2019-02-12T06:35:29.852Z,28.1
2019-02-12T06:36:17.492Z,28
2019-02-12T06:37:11.448Z,27.9
2019-02-12T06:37:59.245Z,27.8
2019-02-12T06:38:48.964Z,27.6
2019-02-12T06:39:39.076Z,27.5
2019-02-12T06:40:29.654Z,27.3
2019-02-12T06:41:19.397Z,26.9
2019-02-12T06:42:08.411Z,26.4
2019-02-12T06:43:00.215Z,26.1
2019-02-12T06:43:50.185Z,25.8
2019-02-12T06:44:38.575Z,25.7
2019-02-12T06:45:29.695Z,25.5
2019-02-12T06:46:19.291Z,25.4
2019-02-12T06:47:09.601Z,25.3
2019-02-12T06:47:59.944Z,25.1
2019-02-12T06:48:49.376Z,25
2019-02-12T06:49:39.318Z,24.9
2019-02-12T06:50:29.810Z,24.9
2019-02-12T06:51:19.593Z,25.2
2019-02-12T06:52:09.878Z,25.5
2019-02-12T06:52:59.881Z,26.1
2019-02-12T06:53:50.538Z,26.3
2019-02-12T06:54:40.278Z,26.5
2019-02-12T06:55:29.797Z,26.7
2019-02-12T06:56:20.149Z,26.9
2019-02-12T06:57:09.973Z,27.2
2019-02-12T06:58:00.313Z,27.4
2019-02-12T06:58:50.364Z,27.3
2019-02-12T06:59:40.766Z,27.3
2019-02-12T07:00:30.856Z,27.1
2019-02-12T07:01:20.090Z,27
2019-02-12T07:02:10.547Z,26.9
2019-02-12T07:03:01.745Z,26.8
2019-02-12T07:03:50.731Z,26.6
2019-02-12T07:06:16.198Z,26.3
2019-02-12T07:07:06.257Z,26.2
2019-02-12T07:07:59.321Z,25.7
2019-02-12T07:08:46.262Z,25.4
2019-02-12T07:09:36.384Z,25.3
2019-02-12T07:10:26.709Z,25.1
2019-02-12T07:11:16.505Z,25
2019-02-12T07:12:06.883Z,24.9
2019-02-12T07:12:57.290Z,24.8
2019-02-12T07:13:46.946Z,24.6
2019-02-12T07:14:37.357Z,24.6
2019-02-12T07:15:27.912Z,24.9
2019-02-12T07:16:17.220Z,25.2
2019-02-12T07:17:08.054Z,25.7
2019-02-12T07:17:57.236Z,26.1
2019-02-12T07:18:48.132Z,26.3
2019-02-12T07:19:38.135Z,26.5
2019-02-12T07:20:28.531Z,26.8
2019-02-12T07:21:18.676Z,26.9
2019-02-12T07:22:07.546Z,27.2
2019-02-12T07:22:58.372Z,27.4
2019-02-12T07:23:48.999Z,27.8
2019-02-12T07:24:37.969Z,27.4
2019-02-12T07:25:28.241Z,26.7
2019-02-12T07:26:18.019Z,25.9
2019-02-12T07:27:08.179Z,25
2019-02-12T07:27:58.209Z,24.1
2019-02-12T07:28:48.234Z,23.2
2019-02-12T07:29:38.254Z,22.4
2019-02-12T07:30:28.481Z,21.6
2019-02-12T07:31:18.478Z,20.9
2019-02-12T07:32:09.313Z,20.6
2019-02-12T07:32:58.133Z,20.8
2019-02-12T07:33:49.761Z,21.5
2019-02-12T07:34:38.709Z,22.6
2019-02-12T07:35:29.438Z,23.8
2019-02-12T07:36:19.317Z,24.8
2019-02-12T07:37:09.664Z,25.5
2019-02-12T07:37:58.911Z,25.8
2019-02-12T07:38:49.540Z,26.1
2019-02-12T07:39:39.781Z,26.3
2019-02-12T07:40:28.990Z,26.6
2019-02-12T07:41:28.437Z,26.9
2019-02-12T07:42:09.258Z,27.3
2019-02-12T07:43:00.070Z,27.3
2019-02-12T07:43:49.526Z,27.3
2019-02-12T07:44:39.875Z,27.2
2019-02-12T07:45:28.783Z,27.1
2019-02-12T07:46:19.725Z,27
2019-02-12T07:47:10.720Z,26.9
2019-02-12T07:47:59.800Z,26.7
2019-02-12T07:48:52.103Z,26.6
2019-02-12T07:49:40.257Z,26.4
2019-02-12T07:50:29.471Z,26.3
2019-02-12T07:51:19.827Z,26.3
2019-02-12T07:52:09.893Z,25.8
2019-02-12T07:53:00.172Z,25.5
2019-02-12T07:53:49.387Z,25.3
2019-02-12T07:54:40.592Z,25.1
2019-02-12T07:55:30.101Z,25
2019-02-12T07:56:19.889Z,24.9
2019-02-12T07:57:09.632Z,24.8
2019-02-12T07:58:00.807Z,24.6
2019-02-12T07:58:50.771Z,24.5
2019-02-12T07:59:40.047Z,24.8
2019-02-12T08:00:30.210Z,25.1
2019-02-12T08:01:19.794Z,25.6
2019-02-12T08:02:09.763Z,26.1
2019-02-12T08:03:01.170Z,26.2
2019-02-12T08:03:51.753Z,26.3
2019-02-12T08:04:40.851Z,26.6
2019-02-12T08:05:30.894Z,26.8
2019-02-12T08:06:21.158Z,27
2019-02-12T08:07:11.444Z,27.3
2019-02-12T08:08:00.661Z,27.3
2019-02-12T08:08:51.770Z,27.3
2019-02-12T08:09:42.062Z,27.1
2019-02-12T08:10:31.657Z,27
2019-02-12T08:11:21.676Z,26.9
2019-02-12T08:12:11.777Z,26.8
2019-02-12T08:13:02.181Z,26.7
2019-02-12T08:13:52.236Z,26.6
2019-02-12T08:14:41.400Z,26.4
2019-02-12T08:15:32.021Z,26.3
2019-02-12T08:16:21.079Z,26.2
2019-02-12T08:17:11.378Z,25.7
2019-02-12T08:18:01.644Z,25.4
2019-02-12T08:18:52.613Z,25.1
2019-02-12T08:19:42.465Z,24.9
2019-02-12T08:20:32.377Z,24.8
2019-02-12T08:21:21.841Z,24.7
2019-02-12T08:22:14.709Z,24.6
2019-02-12T08:23:02.115Z,24.4
2019-02-12T08:23:52.371Z,24.6
2019-02-12T08:24:41.960Z,24.9
2019-02-12T08:25:32.003Z,25.3
2019-02-12T08:26:21.697Z,26
2019-02-12T08:27:11.787Z,26
2019-02-12T08:28:02.472Z,26.2
2019-02-12T08:28:53.855Z,26.4
2019-02-12T08:29:42.755Z,26.6
2019-02-12T08:30:32.572Z,26.8
2019-02-12T08:31:23.532Z,27.1
2019-02-12T08:32:12.849Z,27.3
2019-02-12T08:33:02.906Z,27.3
2019-02-12T08:33:52.925Z,27.2
2019-02-12T08:34:45.479Z,27.1
2019-02-12T08:35:33.396Z,27
2019-02-12T08:36:23.392Z,26.9
2019-02-12T08:37:13.172Z,26.8
2019-02-12T08:38:03.964Z,26.6
2019-02-12T08:38:53.952Z,26.5
2019-02-12T08:39:42.628Z,26.4
2019-02-12T08:40:33.510Z,26.3
2019-02-12T08:41:22.994Z,26.1
2019-02-12T08:42:13.970Z,25.6
2019-02-12T08:43:03.719Z,25.3
2019-02-12T08:43:53.787Z,25.1
2019-02-12T08:44:43.554Z,24.9
2019-02-12T08:45:33.182Z,24.7
2019-02-12T08:46:23.513Z,24.6
2019-02-12T08:47:12.931Z,24.4
2019-02-12T08:48:04.046Z,24.4
2019-02-12T08:48:53.578Z,24.9
2019-02-12T08:49:44.236Z,25.1
2019-02-12T08:50:34.116Z,25.7
2019-02-12T08:51:24.229Z,25.9
2019-02-12T08:52:14.310Z,26.1
2019-02-12T08:53:04.914Z,26.3
2019-02-12T08:53:59.081Z,26.4
2019-02-12T08:54:44.034Z,26.7
2019-02-12T08:55:36.410Z,26.9
2019-02-12T08:56:24.541Z,27.2
2019-02-12T08:57:14.924Z,27.3
2019-02-12T08:58:05.279Z,27.3
2019-02-12T08:58:54.981Z,27.2
2019-02-12T08:59:43.716Z,27.1
2019-02-12T09:00:34.339Z,27
2019-02-12T09:01:24.996Z,26.9
2019-02-12T09:02:15.266Z,26.8
2019-02-12T09:03:05.033Z,26.6
2019-02-12T09:03:55.730Z,26.5
2019-02-12T09:04:44.323Z,26.3
2019-02-12T09:05:35.245Z,26.3
2019-02-12T09:06:24.711Z,26.1
2019-02-12T09:07:14.751Z,25.6
2019-02-12T09:08:05.672Z,25.2
2019-02-12T09:08:55.460Z,24.9
2019-02-12T09:09:45.308Z,24.8
2019-02-12T09:10:35.916Z,24.6
2019-02-12T09:11:26.122Z,24.5
2019-02-12T09:12:15.632Z,24.4
2019-02-12T09:13:04.952Z,24.7
2019-02-12T09:13:55.527Z,24.9
2019-02-12T09:14:45.372Z,25.4
2019-02-12T09:15:36.489Z,25.9
2019-02-12T09:16:25.094Z,25.9
2019-02-12T09:17:15.406Z,26.2
2019-02-12T09:18:06.342Z,26.4
2019-02-12T09:18:55.604Z,26.6
2019-02-12T09:19:46.057Z,26.8
2019-02-12T09:20:36.602Z,27.1
2019-02-12T09:21:25.697Z,27.3
2019-02-12T09:22:16.304Z,27.3
2019-02-12T09:23:06.207Z,27.2
2019-02-12T09:24:09.129Z,27.1
2019-02-12T09:24:46.624Z,27
2019-02-12T09:25:36.962Z,26.9
2019-02-12T09:26:25.584Z,26.8
2019-02-12T09:27:16.201Z,26.6
2019-02-12T09:28:06.464Z,26.5
2019-02-12T09:28:56.293Z,26.4
2019-02-12T09:29:46.106Z,26.3
2019-02-12T09:30:35.901Z,26.1
2019-02-12T09:31:26.268Z,26.1
2019-02-12T09:32:16.526Z,25.9
2019-02-12T09:33:06.855Z,25.8
2019-02-12T09:33:56.869Z,25.7
2019-02-12T09:34:47.828Z,25.6
2019-02-12T09:35:37.152Z,25.4
2019-02-12T09:36:26.621Z,25.3
2019-02-12T09:37:16.515Z,25.1
2019-02-12T09:38:07.803Z,25.3
2019-02-12T09:38:58.305Z,25.8
2019-02-12T09:39:47.268Z,26.1
2019-02-12T09:40:37.815Z,26.1
2019-02-12T09:41:27.970Z,26.3
2019-02-12T09:42:16.650Z,26.4
2019-02-12T09:43:07.361Z,26.6
2019-02-12T09:43:56.342Z,26.9
2019-02-12T09:44:47.700Z,27.1
2019-02-12T09:45:36.698Z,27.3
2019-02-12T09:46:26.797Z,27.3
2019-02-12T09:47:16.978Z,27.3
2019-02-12T09:48:08.215Z,27.1
2019-02-12T09:49:00.903Z,27
2019-02-12T09:49:47.902Z,26.9
2019-02-12T09:50:37.758Z,26.8
2019-02-12T09:51:28.105Z,26.6
2019-02-12T09:52:18.445Z,26.5
2019-02-12T09:53:09.382Z,26.4
2019-02-12T09:53:58.204Z,26.3
2019-02-12T09:54:48.629Z,25.7
2019-02-12T09:55:38.895Z,25.4
2019-02-12T09:56:28.629Z,25.1
2019-02-12T09:57:18.997Z,24.9
2019-02-12T09:58:08.557Z,24.8
2019-02-12T09:58:58.305Z,24.6
2019-02-12T09:59:49.257Z,24.5
2019-02-12T10:00:39.831Z,24.4
2019-02-12T10:01:29.296Z,24.8
2019-02-12T10:02:19.334Z,25.1
2019-02-12T10:03:09.980Z,25.6
2019-02-12T10:03:59.681Z,25.9
2019-02-12T10:04:49.574Z,26
2019-02-12T10:07:17.166Z,26.5
2019-02-12T10:08:05.760Z,26.8
2019-02-12T10:08:57.748Z,27.1
2019-02-12T10:09:46.711Z,27.3
2019-02-12T10:10:37.231Z,27.3
2019-02-12T10:11:27.866Z,27.3
2019-02-12T10:12:17.074Z,27.1
2019-02-12T10:13:07.161Z,27
2019-02-12T10:13:57.563Z,26.9
2019-02-12T10:14:47.253Z,26.8
2019-02-12T10:15:37.041Z,26.6
2019-02-12T10:16:27.445Z,26.5
2019-02-12T10:17:17.220Z,26.4
2019-02-12T10:18:07.527Z,26.3
2019-02-12T10:18:57.838Z,26.1
2019-02-12T10:19:47.925Z,26
2019-02-12T10:20:37.194Z,25.9
2019-02-12T10:21:28.040Z,25.8
2019-02-12T10:22:17.416Z,25.7
2019-02-12T10:23:10.333Z,25.6
2019-02-12T10:23:57.683Z,25.4
2019-02-12T10:24:47.683Z,25.3
2019-02-12T10:25:37.771Z,25
2019-02-12T10:26:28.455Z,25.1
2019-02-12T10:27:18.450Z,25.4
2019-02-12T10:28:10.163Z,26.1
2019-02-12T10:28:58.504Z,26.5
2019-02-12T10:29:48.044Z,26.4
2019-02-12T10:30:38.689Z,26.4
2019-02-12T10:31:28.474Z,26.6
2019-02-12T10:32:18.339Z,26.8
2019-02-12T10:33:08.851Z,27
2019-02-12T10:33:58.596Z,27.2
2019-02-12T10:34:47.782Z,27.6
2019-02-12T10:35:38.182Z,27.6
2019-02-12T10:36:29.024Z,26.8
2019-02-12T10:37:18.798Z,25.9
2019-02-12T10:38:08.554Z,25.7
2019-02-12T10:38:59.594Z,25.9
2019-02-12T10:39:48.959Z,26.4
2019-02-12T10:40:39.676Z,26.4
2019-02-12T10:41:29.124Z,26.6
2019-02-12T10:42:17.894Z,26.8
2019-02-12T10:43:07.689Z,26.9
2019-02-12T10:43:59.838Z,27.2
2019-02-12T10:44:49.627Z,27.4
2019-02-12T10:45:38.876Z,27.4
2019-02-12T10:46:29.242Z,27.3
2019-02-12T10:47:19.829Z,27.1
2019-02-12T10:48:10.190Z,27
2019-02-12T10:49:00.889Z,26.9
2019-02-12T10:49:49.311Z,26.8
2019-02-12T10:50:39.611Z,26.6
2019-02-12T10:51:29.450Z,26.5
2019-02-12T10:52:18.873Z,26.4
2019-02-12T10:53:11.109Z,26.3
2019-02-12T10:53:58.798Z,25.9
2019-02-12T10:54:49.878Z,25.6
2019-02-12T10:55:40.274Z,25.3
2019-02-12T10:56:29.648Z,25.1
2019-02-12T10:57:19.518Z,25
2019-02-12T10:58:11.531Z,24.8
2019-02-12T10:58:58.688Z,24.8
2019-02-12T10:59:49.483Z,24.6
2019-02-12T11:00:39.835Z,24.5
2019-02-12T11:01:30.633Z,24.8
2019-02-12T11:02:20.510Z,25.1
2019-02-12T11:03:10.547Z,25.5
2019-02-12T11:04:00.645Z,26.2
2019-02-12T11:04:51.507Z,26.3
2019-02-12T11:05:41.372Z,26.3
2019-02-12T11:06:30.810Z,26.4
2019-02-12T11:07:21.405Z,26.6
2019-02-12T11:08:10.072Z,26.8
2019-02-12T11:08:59.940Z,27.1
2019-02-12T11:09:51.373Z,27.3
2019-02-12T11:10:41.493Z,27.4
2019-02-12T11:11:31.202Z,27.3
2019-02-12T11:12:21.562Z,27.2
2019-02-12T11:13:11.780Z,27.1
2019-02-12T11:14:00.819Z,26.9
2019-02-12T11:14:50.579Z,26.8
2019-02-12T11:15:40.855Z,26.7
2019-02-12T11:16:32.044Z,26.5
2019-02-12T11:17:21.619Z,26.4
2019-02-12T11:18:10.472Z,26.3
2019-02-12T11:19:02.201Z,26.2
2019-02-12T11:19:50.943Z,25.9